Time;durP1;ratioP1;P1;durP2;ratioP2;P2;SDS_P1;SDS_P2;PMS_P1;PMS_P2;Temp;Humidity;BMP_temperature;BMP_pressure;BME280_temperature;BME280_humidity;BME280_pressure;Samples;Min_cycle;Max_cycle;Signal;HPM_P1;HPM_P2
2022/03/10 00:00:30;;;;;;;14.20;8.57;;;;;;;-0.80;100.00;97132.19;5029292;28;20156;-47
2022/03/10 00:02:58;;;;;;;14.60;8.90;;;;;;;-1.06;100.00;97124.56;5030395;28;20049;-53
2022/03/10 00:05:27;;;;;;;12.80;7.95;;;;;;;-0.89;100.00;97122.19;5029184;28;20053;-53
2022/03/10 00:07:55;;;;;;;16.60;9.32;;;;;;;-1.23;100.00;97125.19;5029197;28;20080;-50
2022/03/10 00:10:23;;;;;;;15.93;8.75;;;;;;;-1.08;100.00;97127.19;5029065;28;20475;-52
2022/03/10 00:12:52;;;;;;;12.52;8.50;;;;;;;-1.10;100.00;97120.38;5029705;28;20053;-54
2022/03/10 00:15:23;;;;;;;14.13;8.30;;;;;;;-1.23;100.00;97131.19;5028963;28;20088;-50
2022/03/10 00:17:52;;;;;;;18.35;8.43;;;;;;;-1.01;100.00;97125.22;5027047;28;21902;-53
2022/03/10 00:20:21;;;;;;;15.73;8.25;;;;;;;-0.93;100.00;97128.34;5026928;28;20069;-55
2022/03/10 00:22:51;;;;;;;13.32;8.18;;;;;;;-0.94;100.00;97134.44;5030619;28;20061;-56
2022/03/10 00:25:20;;;;;;;13.43;8.40;;;;;;;-0.92;100.00;97129.22;5028324;28;20060;-51
2022/03/10 00:27:48;;;;;;;14.43;8.18;;;;;;;-1.07;100.00;97138.38;5029661;28;20129;-48
2022/03/10 00:30:17;;;;;;;17.42;9.77;;;;;;;-1.00;100.00;97132.06;5029022;28;20081;-51
2022/03/10 00:32:50;;;;;;;14.25;8.90;;;;;;;-0.94;100.00;97141.38;5023766;28;20174;-52
2022/03/10 00:35:19;;;;;;;14.50;8.85;;;;;;;-0.94;100.00;97139.63;5023998;28;20417;-51
2022/03/10 00:37:53;;;;;;;13.57;7.85;;;;;;;-1.04;100.00;97135.69;5033153;28;20528;-52
2022/03/10 00:40:22;;;;;;;16.73;8.38;;;;;;;-1.14;100.00;97148.13;5027968;28;20280;-56
2022/03/10 00:42:51;;;;;;;13.65;7.75;;;;;;;-1.29;100.00;97151.28;5029071;28;20057;-50
2022/03/10 00:45:19;;;;;;;10.65;7.80;;;;;;;-1.46;100.00;97146.69;5029354;28;20088;-51
2022/03/10 00:47:52;;;;;;;12.98;7.60;;;;;;;-1.48;100.00;97151.94;5028518;28;20510;-49
2022/03/10 00:50:23;;;;;;;13.70;7.65;;;;;;;-1.51;100.00;97151.22;5028025;28;20075;-54
2022/03/10 00:52:51;;;;;;;16.25;8.18;;;;;;;-1.42;100.00;97150.84;5028800;28;20095;-46
2022/03/10 00:55:20;;;;;;;13.13;8.05;;;;;;;-1.37;100.00;97143.78;5027936;28;20057;-52
2022/03/10 00:57:49;;;;;;;14.38;8.82;;;;;;;-1.36;100.00;97142.06;5028495;28;20057;-54
2022/03/10 01:00:19;;;;;;;12.68;9.07;;;;;;;-1.29;100.00;97135.75;5027919;28;20111;-50
2022/03/10 01:02:47;;;;;;;11.57;8.80;;;;;;;-1.25;100.00;97139.91;5028750;28;20081;-58
2022/03/10 01:05:17;;;;;;;14.30;9.68;;;;;;;-1.36;100.00;97142.88;5027845;28;20061;-53
2022/03/10 01:07:45;;;;;;;17.75;9.20;;;;;;;-1.37;100.00;97148.13;5028855;28;21995;-49
2022/03/10 01:10:14;;;;;;;12.13;8.68;;;;;;;-1.49;100.00;97149.41;5027955;28;20068;-55
2022/03/10 01:12:45;;;;;;;15.68;9.38;;;;;;;-1.51;100.00;97146.03;5027201;28;20520;-49
2022/03/10 01:15:15;;;;;;;15.52;9.88;;;;;;;-1.77;100.00;97157.25;5028615;28;20080;-53
2022/03/10 01:17:44;;;;;;;14.00;9.80;;;;;;;-1.72;100.00;97157.94;5027474;28;20042;-53
2022/03/10 01:20:17;;;;;;;15.25;10.35;;;;;;;-1.65;100.00;97159.44;5026905;28;20061;-50
2022/03/10 01:22:46;;;;;;;14.70;11.80;;;;;;;-1.63;100.00;97155.03;5028571;28;20097;-52
2022/03/10 01:25:18;;;;;;;16.95;11.07;;;;;;;-1.83;100.00;97155.72;5025317;28;20061;-48
2022/03/10 01:27:47;;;;;;;14.70;10.57;;;;;;;-1.72;100.00;97153.63;5025740;28;20126;-54
2022/03/10 01:30:15;;;;;;;17.75;11.77;;;;;;;-1.96;100.00;97159.63;5024822;28;20463;-54
2022/03/10 01:32:44;;;;;;;15.68;9.73;;;;;;;-2.03;100.00;97153.81;5028289;28;20060;-55
2022/03/10 01:35:13;;;;;;;17.23;10.80;;;;;;;-1.87;100.00;97155.88;5027087;28;20065;-53
2022/03/10 01:37:43;;;;;;;15.15;10.32;;;;;;;-1.89;100.00;97153.38;5028364;28;20095;-52
2022/03/10 01:40:13;;;;;;;14.95;11.13;;;;;;;-1.74;100.00;97155.41;5026059;28;20072;-55
2022/03/10 01:42:42;;;;;;;16.77;11.18;;;;;;;-1.84;100.00;97154.03;5027444;28;20084;-55
2022/03/10 01:45:11;;;;;;;18.55;10.70;;;;;;;-1.96;100.00;97149.31;5027738;28;20080;-54
2022/03/10 01:47:39;;;;;;;15.02;10.07;;;;;;;-1.81;100.00;97153.94;5023130;28;20057;-52
2022/03/10 01:50:08;;;;;;;14.77;10.80;;;;;;;-2.04;100.00;97146.09;5027170;28;20073;-50
2022/03/10 01:52:37;;;;;;;16.92;11.38;;;;;;;-2.09;100.00;97145.44;5027520;28;20077;-54
2022/03/10 01:55:08;;;;;;;19.13;11.40;;;;;;;-2.24;100.00;97137.25;5027538;28;20479;-51
2022/03/10 01:57:37;;;;;;;16.67;10.48;;;;;;;-2.24;100.00;97145.00;5027451;28;20085;-56
2022/03/10 02:00:07;;;;;;;15.57;10.07;;;;;;;-2.18;100.00;97144.81;5028339;28;20102;-56
2022/03/10 02:02:36;;;;;;;15.85;10.52;;;;;;;-2.04;100.00;97144.38;5026683;28;20083;-48
2022/03/10 02:05:06;;;;;;;18.00;9.93;;;;;;;-2.24;100.00;97150.16;5027038;28;20073;-55
2022/03/10 02:10:21;;;;;;;14.57;9.02;;;;;;;-2.59;100.00;97145.28;5026180;28;20076;-52
2022/03/10 02:12:51;;;;;;;11.82;8.60;;;;;;;-2.45;100.00;97143.13;5027921;28;20080;-55
2022/03/10 02:18:08;;;;;;;12.23;8.48;;;;;;;-2.58;100.00;97146.97;5026943;28;20382;-54
2022/03/10 02:20:37;;;;;;;13.43;9.43;;;;;;;-2.37;100.00;97146.31;5026671;28;20065;-47
2022/03/10 02:23:09;;;;;;;12.38;8.82;;;;;;;-2.27;100.00;97144.25;5028089;28;20126;-53
2022/03/10 02:25:38;;;;;;;13.30;8.98;;;;;;;-2.30;100.00;97139.22;5027437;28;20077;-55
2022/03/10 02:28:06;;;;;;;16.70;9.18;;;;;;;-2.23;100.00;97140.72;5028689;28;20057;-54
2022/03/10 02:30:35;;;;;;;14.75;9.10;;;;;;;-2.31;100.00;97142.69;5028019;28;20077;-54
2022/03/10 02:33:04;;;;;;;13.63;9.15;;;;;;;-2.20;100.00;97144.03;5028447;28;20084;-49
2022/03/10 02:35:33;;;;;;;12.02;9.25;;;;;;;-2.11;100.00;97153.22;5025886;28;20077;-56
2022/03/10 02:38:01;;;;;;;14.38;9.68;;;;;;;-2.07;100.00;97151.38;5028861;28;20092;-51
2022/03/10 02:40:31;;;;;;;11.90;9.68;;;;;;;-2.30;100.00;97146.97;5027229;28;20069;-56
2022/03/10 02:42:59;;;;;;;12.73;9.05;;;;;;;-2.18;100.00;97147.41;5029663;28;20069;-58
2022/03/10 02:45:27;;;;;;;13.07;9.35;;;;;;;-2.13;100.00;97154.16;5027017;28;20088;-51
2022/03/10 02:47:56;;;;;;;14.27;9.38;;;;;;;-2.23;100.00;97151.88;5030075;28;20076;-55
2022/03/10 02:50:24;;;;;;;14.15;9.13;;;;;;;-2.30;100.00;97165.06;5029183;28;20065;-54
2022/03/10 02:52:52;;;;;;;13.40;9.02;;;;;;;-2.79;100.00;97167.38;5030506;28;20065;-53
2022/03/10 02:55:21;;;;;;;19.35;9.48;;;;;;;-3.27;100.00;97172.22;5029829;28;20509;-50
2022/03/10 02:57:51;;;;;;;13.18;9.63;;;;;;;-3.05;100.00;97170.75;5030317;28;20041;-50
2022/03/10 03:00:19;;;;;;;13.00;9.05;;;;;;;-2.94;100.00;97171.28;5030417;28;20069;-50
2022/03/10 03:02:47;;;;;;;14.02;9.20;;;;;;;-2.82;100.00;97169.22;5030315;28;20065;-55
2022/03/10 03:05:16;;;;;;;14.00;9.65;;;;;;;-2.78;100.00;97168.25;5027767;28;20519;-54
2022/03/10 03:07:45;;;;;;;13.73;9.98;;;;;;;-2.79;100.00;97172.53;5031189;28;20065;-58
2022/03/10 03:10:13;;;;;;;16.10;10.32;;;;;;;-2.76;100.00;97172.44;5030137;28;20080;-53
2022/03/10 03:12:46;;;;;;;21.27;11.50;;;;;;;-2.67;100.00;97169.59;5030106;28;20577;-58
2022/03/10 03:15:16;;;;;;;20.33;9.75;;;;;;;-2.80;100.00;97177.75;5031708;28;20073;-58
2022/03/10 03:17:47;;;;;;;16.40;9.82;;;;;;;-2.86;100.00;97173.63;5030141;28;20069;-54
2022/03/10 03:20:16;;;;;;;20.27;9.85;;;;;;;-2.56;100.00;97173.59;5029250;28;20065;-55
2022/03/10 03:22:47;;;;;;;14.65;9.77;;;;;;;-2.82;100.00;97184.69;5030198;28;20055;-50
2022/03/10 03:25:16;;;;;;;15.40;9.55;;;;;;;-2.70;100.00;97181.75;5030392;28;20061;-57
2022/03/10 03:27:46;;;;;;;14.68;10.30;;;;;;;-2.52;100.00;97176.03;5030201;28;20064;-54
2022/03/10 03:30:17;;;;;;;13.18;9.27;;;;;;;-2.71;100.00;97173.19;5029014;28;20465;-56
2022/03/10 03:32:45;;;;;;;;;;;;;;;-2.57;100.00;97184.84;5030085;28;20069;-55
2022/03/10 03:35:15;;;;;;;11.25;8.70;;;;;;;-2.61;100.00;97190.97;5029854;28;19971;-52
2022/03/10 03:37:43;;;;;;;13.48;9.85;;;;;;;-2.52;100.00;97188.09;5028734;28;20065;-53
2022/03/10 03:40:12;;;;;;;12.88;8.88;;;;;;;-2.54;100.00;97197.66;5029519;28;20068;-51
2022/03/10 03:42:40;;;;;;;14.80;9.25;;;;;;;-2.59;100.00;97200.34;5030234;28;20083;-58
2022/03/10 03:45:10;;;;;;;15.85;10.40;;;;;;;-2.63;100.00;97194.44;5030768;28;20085;-53
2022/03/10 03:47:39;;;;;;;15.38;10.25;;;;;;;-2.77;100.00;97204.31;5028964;28;20428;-53
2022/03/10 03:50:11;;;;;;;12.02;9.25;;;;;;;-2.68;100.00;97213.56;5030032;28;20033;-54
2022/03/10 03:52:39;;;;;;;14.07;9.60;;;;;;;-2.77;100.00;97209.50;5028012;28;20064;-54
2022/03/10 03:55:09;;;;;;;12.65;9.00;;;;;;;-3.04;100.00;97218.03;5029187;28;20079;-56
2022/03/10 03:57:37;;;;;;;12.25;8.40;;;;;;;-3.06;100.00;97220.66;5029959;28;20089;-57
2022/03/10 04:00:09;;;;;;;11.25;8.48;;;;;;;-3.37;100.00;97224.06;5029849;28;20081;-57
2022/03/10 04:02:39;;;;;;;14.80;9.77;;;;;;;-3.30;100.00;97222.19;5029198;28;20045;-57
2022/03/10 04:05:08;;;;;;;14.73;9.10;;;;;;;-3.24;100.00;97224.56;5029734;28;20065;-49
2022/03/10 04:07:36;;;;;;;13.35;9.23;;;;;;;-3.10;100.00;97231.94;5029978;28;20065;-49
2022/03/10 04:10:07;;;;;;;16.60;9.70;;;;;;;-3.17;100.00;97235.56;5029897;28;20068;-52
2022/03/10 04:12:36;;;;;;;16.73;10.68;;;;;;;-3.28;100.00;97230.69;5029889;28;20088;-51
2022/03/10 04:15:06;;;;;;;14.35;10.57;;;;;;;-3.13;100.00;97234.63;5029925;28;20088;-54
2022/03/10 04:17:34;;;;;;;15.27;9.77;;;;;;;-3.36;100.00;97236.06;5029346;28;20077;-50
2022/03/10 04:20:08;;;;;;;16.90;10.75;;;;;;;-3.31;100.00;97243.66;5028920;28;20068;-58
2022/03/10 04:22:36;;;;;;;18.08;10.43;;;;;;;-3.25;100.00;97247.84;5029718;28;20065;-53
2022/03/10 04:25:06;;;;;;;13.23;9.32;;;;;;;-3.05;100.00;97250.72;5029739;28;20068;-52
2022/03/10 04:27:34;;;;;;;13.73;9.93;;;;;;;-3.31;100.00;97253.16;5029584;28;20084;-48
2022/03/10 04:30:03;;;;;;;16.50;10.25;;;;;;;-3.35;100.00;97254.97;5029639;28;20103;-53
2022/03/10 04:32:40;;;;;;;16.83;11.32;;;;;;;-3.38;100.00;97258.47;5028879;28;20632;-55
2022/03/10 04:35:10;;;;;;;16.60;11.15;;;;;;;-3.48;100.00;97253.59;5027338;28;20083;-47
2022/03/10 04:37:39;;;;;;;22.15;12.35;;;;;;;-3.33;100.00;97248.03;5026450;28;20099;-59
2022/03/10 04:40:08;;;;;;;19.85;12.05;;;;;;;-3.11;100.00;97248.31;5022724;28;20073;-55
2022/03/10 04:42:37;;;;;;;17.13;11.75;;;;;;;-3.25;100.00;97242.69;5029374;28;20519;-54
2022/03/10 04:45:07;;;;;;;25.38;11.35;;;;;;;-3.45;100.00;97246.63;5030155;28;20077;-55
2022/03/10 04:47:36;;;;;;;17.95;11.85;;;;;;;-3.49;100.00;97249.31;5029960;28;20076;-53
2022/03/10 04:50:05;;;;;;;19.63;12.10;;;;;;;-3.30;100.00;97250.53;5029364;28;20566;-54
2022/03/10 04:52:35;;;;;;;20.38;11.93;;;;;;;-3.44;100.00;97247.44;5029012;28;20069;-50
2022/03/10 04:55:04;;;;;;;18.73;11.93;;;;;;;-3.20;100.00;97251.13;5029812;28;20072;-52
2022/03/10 04:57:32;;;;;;;20.17;11.60;;;;;;;-3.26;100.00;97257.31;5029556;28;20091;-56
2022/03/10 05:00:00;;;;;;;21.85;11.70;;;;;;;-3.13;100.00;97260.41;5030291;28;20545;-50
2022/03/10 05:02:30;;;;;;;16.70;11.23;;;;;;;-3.11;100.00;97249.13;5029092;28;20076;-51
2022/03/10 05:04:59;;;;;;;21.85;12.02;;;;;;;-3.10;100.00;97252.56;5029510;28;20061;-51
2022/03/10 05:07:27;;;;;;;18.10;10.98;;;;;;;-3.00;100.00;97248.00;5029810;28;20072;-56
2022/03/10 05:09:56;;;;;;;19.25;11.82;;;;;;;-3.15;100.00;97249.28;5029161;28;20060;-52
2022/03/10 05:12:24;;;;;;;17.92;10.93;;;;;;;-3.47;100.00;97242.41;5029093;28;20073;-49
2022/03/10 05:14:53;;;;;;;15.95;10.50;;;;;;;-3.53;100.00;97243.41;5029898;28;20088;-50
2022/03/10 05:17:23;;;;;;;22.05;11.52;;;;;;;-3.52;100.00;97247.66;5029194;28;20061;-51
2022/03/10 05:19:52;;;;;;;;;;;;;;;-3.38;100.00;97237.00;5029498;28;20072;-55
2022/03/10 05:22:20;;;;;;;20.55;10.85;;;;;;;-3.48;100.00;97238.94;5029056;28;19975;-53
2022/03/10 05:24:48;;;;;;;20.67;10.82;;;;;;;-3.64;100.00;97243.69;5028770;28;20072;-54
2022/03/10 05:27:18;;;;;;;17.92;10.45;;;;;;;-3.69;100.00;97244.66;5029988;28;20092;-57
2022/03/10 05:29:46;;;;;;;16.88;10.82;;;;;;;-3.64;100.00;97242.84;5028619;28;20076;-49
2022/03/10 05:32:18;;;;;;;15.25;10.48;;;;;;;-3.74;100.00;97244.78;5028650;28;20073;-48
2022/03/10 05:34:46;;;;;;;21.65;11.30;;;;;;;-3.60;100.00;97239.28;5028731;28;20072;-52
2022/03/10 05:37:14;;;;;;;19.58;10.95;;;;;;;-3.55;100.00;97237.41;5032129;28;20103;-52
2022/03/10 05:39:43;;;;;;;15.18;10.77;;;;;;;-3.44;100.00;97237.13;5027938;28;20068;-54
2022/03/10 05:42:11;;;;;;;20.02;9.90;;;;;;;-3.70;100.00;97246.41;5029256;28;20081;-49
2022/03/10 05:44:40;;;;;;;15.18;10.15;;;;;;;-3.73;100.00;97253.38;5028887;28;20068;-54
2022/03/10 05:47:09;;;;;;;13.85;10.35;;;;;;;-3.82;100.00;97249.25;5028667;28;20531;-53
2022/03/10 05:49:38;;;;;;;19.13;10.45;;;;;;;-3.68;100.00;97248.94;5028346;28;20110;-56
2022/03/10 05:52:06;;;;;;;16.63;9.75;;;;;;;-3.62;100.00;97241.88;5028685;28;20076;-54
2022/03/10 05:54:35;;;;;;;15.52;11.07;;;;;;;-3.43;100.00;97254.31;5028216;28;20093;-58
2022/03/10 05:57:04;;;;;;;21.60;11.48;;;;;;;-3.36;100.00;97263.59;5029373;28;20076;-56
2022/03/10 05:59:32;;;;;;;19.33;12.10;;;;;;;-3.17;100.00;97257.03;5028888;28;20073;-54
2022/03/10 06:02:02;;;;;;;17.77;11.48;;;;;;;-3.39;100.00;97254.19;5028826;28;20065;-53
2022/03/10 06:04:30;;;;;;;19.70;11.38;;;;;;;-3.29;100.00;97262.53;5028426;28;20057;-53
2022/03/10 06:06:59;;;;;;;23.40;12.65;;;;;;;-3.22;100.00;97261.50;5034835;28;20480;-52
2022/03/10 06:09:27;;;;;;;21.58;12.60;;;;;;;-2.90;100.00;97264.91;5028540;28;20091;-54
2022/03/10 06:11:55;;;;;;;18.48;11.55;;;;;;;-2.71;100.00;97263.53;5028922;28;20096;-56
2022/03/10 06:14:23;;;;;;;20.60;11.23;;;;;;;-2.61;100.00;97258.94;5028740;28;20056;-54
2022/03/10 06:16:52;;;;;;;31.25;11.82;;;;;;;-2.38;100.00;97260.84;5027825;28;20096;-55
2022/03/10 06:19:21;;;;;;;21.48;11.85;;;;;;;-2.31;100.00;97258.91;5028195;28;20088;-55
2022/03/10 06:21:51;;;;;;;20.23;10.97;;;;;;;-2.43;100.00;97267.88;5029613;28;20064;-50
2022/03/10 06:24:19;;;;;;;19.67;10.98;;;;;;;-2.50;100.00;97272.38;5027121;28;20147;-58
2022/03/10 06:26:48;;;;;;;17.85;10.98;;;;;;;-2.40;100.00;97268.63;5031905;28;20073;-53
2022/03/10 06:29:16;;;;;;;18.42;11.13;;;;;;;-2.36;100.00;97268.56;5026612;28;20080;-59
2022/03/10 06:31:44;;;;;;;17.50;11.13;;;;;;;-2.17;100.00;97265.38;5032041;28;20061;-56
2022/03/10 06:34:12;;;;;;;21.02;12.40;;;;;;;-2.03;100.00;97272.69;5032622;28;20061;-53
2022/03/10 06:36:42;;;;;;;22.60;12.20;;;;;;;-1.85;100.00;97271.28;5035112;28;20061;-58
2022/03/10 06:39:12;;;;;;;20.73;12.40;;;;;;;-1.50;100.00;97261.50;5032577;28;20534;-51
2022/03/10 06:41:40;;;;;;;21.13;12.68;;;;;;;-1.29;100.00;97254.78;5032433;28;20072;-56
2022/03/10 06:44:09;;;;;;;22.98;13.15;;;;;;;-1.14;100.00;97264.56;5027693;28;20080;-55
2022/03/10 06:46:37;;;;;;;20.17;12.57;;;;;;;-0.83;100.00;97259.16;5031995;28;20475;-55
2022/03/10 06:49:05;;;;;;;20.65;14.20;;;;;;;-0.61;100.00;97258.41;5032192;28;20065;-53
2022/03/10 06:51:33;;;;;;;24.52;14.15;;;;;;;-0.40;100.00;97254.16;5032253;28;20509;-51
2022/03/10 06:54:03;;;;;;;24.95;14.70;;;;;;;-0.30;100.00;97251.16;5032285;28;20085;-53
2022/03/10 06:56:31;;;;;;;24.27;14.73;;;;;;;-0.09;100.00;97256.41;5031836;28;20515;-51
2022/03/10 06:58:59;;;;;;;22.50;14.75;;;;;;;0.06;100.00;97250.63;5031984;28;20527;-49
2022/03/10 07:01:28;;;;;;;23.00;14.00;;;;;;;0.28;100.00;97261.00;5031934;28;20071;-48
2022/03/10 07:03:57;;;;;;;21.10;13.30;;;;;;;0.34;100.00;97268.50;5031599;28;20097;-53
2022/03/10 07:06:25;;;;;;;22.00;13.20;;;;;;;0.57;100.00;97257.19;5037599;28;20726;-48
2022/03/10 07:08:54;;;;;;;22.08;14.50;;;;;;;0.68;100.00;97262.78;5029149;28;20096;-55
2022/03/10 07:11:25;;;;;;;19.98;13.38;;;;;;;0.80;100.00;97268.38;5031648;28;20068;-55
2022/03/10 07:13:54;;;;;;;20.10;12.77;;;;;;;1.00;100.00;97268.38;5030425;28;20076;-55
2022/03/10 07:16:22;;;;;;;19.73;12.75;;;;;;;1.17;100.00;97257.25;5031729;28;20072;-56
2022/03/10 07:18:53;;;;;;;20.73;12.25;;;;;;;1.13;100.00;97258.28;5031408;28;20061;-50
2022/03/10 07:21:23;;;;;;;19.10;12.23;;;;;;;1.27;100.00;97261.13;5031579;28;20061;-52
2022/03/10 07:23:55;;;;;;;19.15;13.18;;;;;;;1.62;100.00;97261.31;5032101;28;20091;-50
2022/03/10 07:26:24;;;;;;;20.40;12.55;;;;;;;1.86;100.00;97256.75;5031580;28;20076;-57
2022/03/10 07:28:52;;;;;;;25.40;13.50;;;;;;;2.05;100.00;97256.72;5031408;28;20076;-54
2022/03/10 07:31:21;;;;;;;17.00;11.52;;;;;;;1.82;100.00;97255.19;5031035;28;20456;-53
2022/03/10 07:33:49;;;;;;;19.73;12.18;;;;;;;1.82;100.00;97253.41;5031271;28;20065;-55
2022/03/10 07:36:22;;;;;;;17.75;11.73;;;;;;;2.04;100.00;97250.66;5033249;28;20092;-57
2022/03/10 07:38:50;;;;;;;19.27;11.80;;;;;;;2.17;100.00;97252.66;5050273;28;20288;-52
2022/03/10 07:41:19;;;;;;;19.05;11.63;;;;;;;2.37;100.00;97249.94;5050616;28;20057;-50
2022/03/10 07:43:49;;;;;;;18.30;11.43;;;;;;;2.29;100.00;97246.88;5051145;28;20557;-56
2022/03/10 07:46:22;;;;;;;17.60;10.93;;;;;;;2.42;100.00;97242.78;5050953;28;20068;-56
2022/03/10 07:48:51;;;;;;;19.30;10.95;;;;;;;2.94;100.00;97247.97;5045387;28;20065;-55
2022/03/10 07:51:19;;;;;;;15.90;11.10;;;;;;;2.93;100.00;97241.09;5045364;28;20083;-55
2022/03/10 07:53:47;;;;;;;18.58;11.63;;;;;;;3.24;100.00;97232.53;5050941;28;20068;-56
2022/03/10 07:56:16;;;;;;;20.95;11.00;;;;;;;3.28;100.00;97235.81;5050680;28;20069;-56
2022/03/10 07:58:44;;;;;;;18.30;11.45;;;;;;;3.56;100.00;97230.81;5050848;28;20069;-51
2022/03/10 08:01:14;;;;;;;16.17;10.57;;;;;;;3.87;100.00;97231.75;5048962;28;20472;-57
2022/03/10 08:03:43;;;;;;;17.10;11.23;;;;;;;3.90;100.00;97223.75;5050397;28;20091;-59
2022/03/10 08:06:11;;;;;;;17.48;10.68;;;;;;;4.11;100.00;97226.94;5056224;28;20087;-55
2022/03/10 08:08:39;;;;;;;18.15;10.15;;;;;;;4.00;100.00;97230.16;5049533;28;20069;-59
2022/03/10 08:11:08;;;;;;;15.40;10.85;;;;;;;3.98;100.00;97225.94;5050367;28;20065;-56
2022/03/10 08:13:36;;;;;;;14.38;9.52;;;;;;;3.98;100.00;97226.78;5049974;28;20057;-60
2022/03/10 08:16:05;;;;;;;14.07;9.57;;;;;;;4.36;100.00;97226.38;5050614;28;20067;-55
2022/03/10 08:18:35;;;;;;;14.50;10.07;;;;;;;4.53;100.00;97225.44;5050233;28;20498;-53
2022/03/10 08:21:07;;;;;;;13.38;9.82;;;;;;;4.48;100.00;97227.47;5050919;28;20081;-55
2022/03/10 08:23:35;;;;;;;13.43;9.95;;;;;;;4.62;100.00;97227.50;5050227;28;20075;-57
2022/03/10 08:26:03;;;;;;;12.27;9.07;;;;;;;4.71;100.00;97228.72;5050198;28;20472;-58
2022/03/10 08:28:33;;;;;;;13.18;9.93;;;;;;;4.66;100.00;97228.19;5050095;28;20077;-56
2022/03/10 08:31:01;;;;;;;12.02;9.23;;;;;;;4.64;100.00;97228.25;5050023;28;20067;-52
2022/03/10 08:33:30;;;;;;;13.02;9.30;;;;;;;4.90;100.00;97224.13;5050262;28;20080;-51
2022/03/10 08:35:59;;;;;;;13.90;8.82;;;;;;;4.71;100.00;97219.16;5051074;28;20080;-55
2022/03/10 08:38:30;;;;;;;13.53;9.20;;;;;;;5.02;100.00;97211.25;5052595;28;20464;-58
2022/03/10 08:40:59;;;;;;;29.35;10.68;;;;;;;5.12;100.00;97209.75;5049795;28;20068;-55
2022/03/10 08:43:29;;;;;;;12.90;9.38;;;;;;;5.38;100.00;97216.88;5049548;28;20072;-59
2022/03/10 08:45:57;;;;;;;13.52;9.45;;;;;;;5.57;100.00;97213.13;5049648;28;20150;-55
2022/03/10 08:48:26;;;;;;;14.15;9.25;;;;;;;5.45;100.00;97212.94;5049654;28;20087;-59
2022/03/10 08:50:54;;;;;;;14.00;9.98;;;;;;;5.56;100.00;97201.81;5050424;28;20088;-53
2022/03/10 08:53:23;;;;;;;12.25;8.60;;;;;;;5.58;100.00;97199.13;5049433;28;20072;-52
2022/03/10 08:55:52;;;;;;;14.98;8.80;;;;;;;5.84;100.00;97195.69;5049301;28;20087;-55
2022/03/10 08:58:24;;;;;;;13.73;9.13;;;;;;;5.94;100.00;97191.56;5049575;28;20067;-51
2022/03/10 09:00:52;;;;;;;12.82;9.45;;;;;;;6.10;100.00;97196.69;5049849;28;20565;-60
2022/03/10 09:03:40;;;;;;;16.90;9.77;;;;;;;6.23;100.00;97188.88;5043945;28;20081;-59
2022/03/10 09:06:12;;;;;;;14.48;9.63;;;;;;;6.18;100.00;97189.16;5052697;28;20091;-59
2022/03/10 09:08:42;;;;;;;14.82;9.32;;;;;;;6.29;100.00;97185.84;5049147;28;20079;-57
2022/03/10 09:11:11;;;;;;;11.55;9.15;;;;;;;6.39;100.00;97179.06;5049492;28;20091;-59
2022/03/10 09:13:41;;;;;;;13.85;9.55;;;;;;;6.47;100.00;97185.56;5049364;28;20103;-55
2022/03/10 09:16:09;;;;;;;12.38;9.18;;;;;;;6.45;100.00;97180.44;5048649;28;20060;-58
2022/03/10 09:18:37;;;;;;;14.38;10.10;;;;;;;6.76;100.00;97176.63;5049292;28;20534;-58
2022/03/10 09:21:06;;;;;;;17.33;10.65;;;;;;;6.53;100.00;97179.94;5050305;28;20095;-59
2022/03/10 09:23:34;;;;;;;15.68;10.55;;;;;;;6.77;100.00;97180.91;5049076;28;20068;-54
2022/03/10 09:26:04;;;;;;;16.05;10.23;;;;;;;6.89;100.00;97171.41;5048781;28;20072;-56
2022/03/10 09:28:32;;;;;;;14.68;9.73;;;;;;;7.01;100.00;97175.78;5049014;28;20079;-53
2022/03/10 09:31:00;;;;;;;13.05;9.15;;;;;;;7.26;99.09;97174.09;5048418;28;20068;-56
2022/03/10 09:33:29;;;;;;;15.98;9.85;;;;;;;7.27;96.82;97173.16;5048400;28;20076;-51
2022/03/10 09:35:57;;;;;;;12.38;9.15;;;;;;;7.52;95.21;97175.75;5049851;28;20515;-53
2022/03/10 09:38:25;;;;;;;15.25;8.55;;;;;;;7.54;88.24;97171.22;5049394;28;20060;-56
2022/03/10 09:40:54;;;;;;;13.20;9.05;;;;;;;7.84;87.14;97165.59;5048810;28;20060;-53
2022/03/10 09:43:27;;;;;;;11.88;8.90;;;;;;;7.85;85.83;97175.13;5048519;28;20072;-56
2022/03/10 09:45:56;;;;;;;15.43;9.38;;;;;;;8.00;80.27;97170.56;5048684;28;20065;-52
2022/03/10 09:48:26;;;;;;;12.57;8.85;;;;;;;8.42;77.01;97165.75;5048768;28;20451;-57
2022/03/10 09:50:55;;;;;;;12.55;8.27;;;;;;;8.27;77.24;97178.22;5049269;28;20084;-55
2022/03/10 09:53:30;;;;;;;11.55;7.93;;;;;;;8.40;73.69;97164.22;5048434;28;20083;-58
2022/03/10 09:55:59;;;;;;;12.07;7.95;;;;;;;8.51;71.10;97164.25;5047704;28;20071;-57
2022/03/10 09:58:28;;;;;;;12.77;8.57;;;;;;;9.00;68.75;97160.53;5048948;28;20144;-53
2022/03/10 10:01:00;;;;;;;9.30;7.53;;;;;;;8.90;64.40;97167.44;5048312;28;20076;-55
2022/03/10 10:03:29;;;;;;;10.50;7.68;;;;;;;9.03;64.05;97155.03;5048427;28;20124;-56
2022/03/10 10:05:58;;;;;;;10.15;7.22;;;;;;;9.37;59.95;97162.97;5049707;28;20475;-55
2022/03/10 10:08:26;;;;;;;11.65;8.35;;;;;;;9.33;57.00;97165.00;5048151;28;20072;-61
2022/03/10 10:10:56;;;;;;;11.32;7.38;;;;;;;9.46;55.39;97167.50;5048089;28;20065;-58
2022/03/10 10:13:25;;;;;;;11.97;7.97;;;;;;;9.60;55.87;97162.00;5048510;28;20694;-54
2022/03/10 10:15:57;;;;;;;10.63;7.20;;;;;;;9.63;55.11;97155.63;5048608;28;20865;-48
2022/03/10 10:18:26;;;;;;;9.80;7.10;;;;;;;9.73;53.97;97164.47;5047966;28;20077;-51
2022/03/10 10:21:18;;;;;;;14.82;8.50;;;;;;;9.50;53.12;97161.88;5049041;28;20069;-56
2022/03/10 10:23:49;;;;;;;9.50;6.95;;;;;;;9.60;51.30;97153.22;5048237;28;20447;-58
2022/03/10 10:26:18;;;;;;;12.55;7.82;;;;;;;9.64;51.41;97158.16;5048255;28;20076;-58
2022/03/10 10:28:48;;;;;;;11.32;7.65;;;;;;;9.95;51.77;97153.91;5047923;28;20041;-55
2022/03/10 10:31:19;;;;;;;11.77;7.43;;;;;;;9.68;50.08;97162.22;5047493;28;20075;-57
2022/03/10 10:34:01;;;;;;;11.63;7.18;;;;;;;10.10;49.62;97149.19;5042072;28;20545;-55
2022/03/10 10:36:30;;;;;;;11.75;6.63;;;;;;;10.04;48.91;97157.59;5050051;28;20099;-52
2022/03/10 10:39:08;;;;;;;16.23;7.70;;;;;;;10.01;48.11;97155.19;5048178;28;20103;-56
2022/03/10 10:41:37;;;;;;;11.40;7.53;;;;;;;9.98;47.24;97151.03;5048061;28;20076;-57
2022/03/10 10:44:07;;;;;;;11.57;7.65;;;;;;;10.00;47.63;97150.91;5047969;28;20163;-54
2022/03/10 10:46:38;;;;;;;10.73;7.63;;;;;;;10.04;47.40;97151.47;5048095;28;20523;-54
2022/03/10 10:49:08;;;;;;;10.68;7.55;;;;;;;10.08;47.65;97152.91;5047684;28;20076;-59
2022/03/10 10:51:38;;;;;;;12.43;7.38;;;;;;;10.02;45.96;97148.16;5047762;28;20084;-49
2022/03/10 10:54:08;;;;;;;11.80;7.55;;;;;;;10.06;45.75;97154.84;5048181;28;20072;-54
2022/03/10 10:56:46;;;;;;;13.07;7.70;;;;;;;10.05;45.33;97143.47;5047921;28;20518;-52
2022/03/10 10:59:28;;;;;;;10.65;7.43;;;;;;;10.15;44.95;97136.50;5043036;28;20064;-56
2022/03/10 11:02:08;;;;;;;10.77;7.18;;;;;;;10.38;45.60;97136.41;5048257;28;20092;-56
2022/03/10 11:04:37;;;;;;;10.10;7.13;;;;;;;10.38;45.06;97139.06;5047464;28;20077;-54
2022/03/10 11:07:08;;;;;;;10.50;8.15;;;;;;;10.53;45.34;97139.56;5050650;28;20072;-54
2022/03/10 11:09:37;;;;;;;8.75;6.38;;;;;;;10.58;44.12;97129.50;5051466;28;20081;-56
2022/03/10 11:12:08;;;;;;;7.55;6.03;;;;;;;10.44;43.15;97117.47;5052137;28;20081;-51
2022/03/10 11:14:36;;;;;;;12.35;6.57;;;;;;;10.74;42.97;97121.97;5051161;28;20057;-55
2022/03/10 11:17:07;;;;;;;12.00;7.45;;;;;;;10.73;43.99;97119.44;5051250;28;20075;-49
2022/03/10 11:19:38;;;;;;;12.82;7.53;;;;;;;10.75;44.56;97112.25;5051181;28;20073;-51
2022/03/10 11:22:12;;;;;;;10.52;7.18;;;;;;;10.59;43.60;97102.97;5051410;28;20081;-58
2022/03/10 11:24:56;;;;;;;10.60;7.03;;;;;;;10.76;43.82;97109.47;5044858;28;20067;-55
2022/03/10 11:27:27;;;;;;;10.75;7.13;;;;;;;10.71;42.88;97103.75;5050945;28;20084;-56
2022/03/10 11:29:58;;;;;;;9.98;6.53;;;;;;;11.12;40.94;97112.59;5051473;28;20103;-50
2022/03/10 11:32:29;;;;;;;9.93;7.22;;;;;;;10.68;41.94;97096.09;5050806;28;20061;-60
2022/03/10 11:35:00;;;;;;;10.30;7.47;;;;;;;10.85;42.22;97095.50;5050663;28;20068;-57